Time;durP1;ratioP1;P1;durP2;ratioP2;P2;SDS_P1;SDS_P2;PMS_P1;PMS_P2;Temp;Humidity;BMP_temperature;BMP_pressure;BME280_temperature;BME280_humidity;BME280_pressure;Samples;Min_cycle;Max_cycle;Signal;HPM_P1;HPM_P2
2023/04/29 00:00:58;;;;;;;29.60;17.70;;;;;;;4.50;69.40;98868.86;273399;1269;22359;-87
2023/04/29 00:14:59;;;;;;;30.10;18.10;;;;;;;4.33;69.26;98873.95;273168;1260;22204;-86
2023/04/29 00:21:06;;;;;;;38.70;19.60;;;;;;;4.22;70.01;98870.63;272044;1255;23487;-87
2023/04/29 00:43:21;;;;;;;;;;;;;;;4.35;72.60;98868.73;272617;1272;22498;-86
2023/04/29 00:49:26;;;;;;;32.40;19.00;;;;;;;4.24;72.86;98865.21;271554;1261;22389;-86
2023/04/29 01:10:09;;;;;;;40.90;20.70;;;;;;;4.29;74.50;98856.14;271326;1272;22388;-87
2023/04/29 01:24:14;;;;;;;35.50;19.90;;;;;;;4.42;74.37;98853.56;270411;1273;22633;-87
2023/04/29 01:46:18;;;;;;;33.10;20.50;;;;;;;4.74;76.51;98846.55;271414;1273;22442;-88
2023/04/29 01:52:21;;;;;;;39.90;21.00;;;;;;;4.80;76.57;98842.48;270982;1277;22566;-88
2023/04/29 01:58:30;;;;;;;33.10;18.70;;;;;;;4.91;77.11;98838.06;272408;1274;22277;-87
2023/04/29 02:13:25;;;;;;;44.60;24.10;;;;;;;5.15;77.57;98833.15;272653;1270;22553;-87
2023/04/29 02:19:53;;;;;;;40.00;22.10;;;;;;;5.21;78.03;98831.70;273378;1272;22257;-87
2023/04/29 02:34:37;;;;;;;38.30;19.80;;;;;;;5.33;77.76;98847.96;271370;1258;23150;-88
2023/04/29 02:41:32;;;;;;;37.40;21.10;;;;;;;5.30;76.93;98851.50;270699;1272;22563;-87
2023/04/29 02:47:34;;;;;;;32.50;20.10;;;;;;;5.27;76.96;98838.31;271036;1269;23153;-87
2023/04/29 03:01:56;;;;;;;29.80;18.80;;;;;;;5.39;77.96;98839.62;273453;1275;22183;-87
2023/04/29 03:08:57;;;;;;;33.40;19.00;;;;;;;5.46;78.62;98834.30;273436;1273;24178;-87
2023/04/29 03:15:51;;;;;;;35.40;20.10;;;;;;;5.52;78.08;98827.88;273340;1272;22554;-88
2023/04/29 03:22:46;;;;;;;40.20;23.70;;;;;;;5.59;78.23;98816.76;272113;1260;22551;-87
2023/04/29 03:36:41;;;;;;;31.20;19.20;;;;;;;5.81;79.57;98819.09;273834;1269;22433;-87
2023/04/29 04:14:01;;;;;;;33.40;19.80;;;;;;;6.17;81.78;98810.97;273680;1275;22306;-88
2023/04/29 04:20:28;;;;;;;34.00;21.00;;;;;;;6.19;81.67;98813.58;271829;1272;22532;-87
2023/04/29 04:27:17;;;;;;;34.40;21.40;;;;;;;6.26;82.13;98814.84;270128;1269;22542;-87
2023/04/29 04:34:16;;;;;;;34.40;20.30;;;;;;;6.33;82.43;98812.08;270421;1269;24323;-87
2023/04/29 04:41:23;;;;;;;38.90;21.90;;;;;;;6.39;82.54;98806.06;270380;1273;22634;-87
2023/04/29 04:55:59;;;;;;;31.90;21.30;;;;;;;6.57;83.50;98800.35;270937;1269;24314;-87
2023/04/29 05:10:40;;;;;;;33.50;23.60;;;;;;;6.75;84.60;98801.18;273483;1269;23589;-87
2023/04/29 05:16:55;;;;;;;39.80;23.10;;;;;;;6.87;85.20;98797.16;271297;1274;23391;-88
2023/04/29 05:23:07;;;;;;;36.40;23.70;;;;;;;7.01;86.14;98798.40;272272;1272;23415;-87
2023/04/29 05:37:23;;;;;;;38.90;25.00;;;;;;;7.35;87.24;98792.77;272883;1270;22218;-87
2023/04/29 05:44:03;;;;;;;35.30;25.10;;;;;;;7.58;88.03;98803.43;273446;1269;22399;-87
2023/04/29 05:50:44;;;;;;;45.00;27.40;;;;;;;7.81;87.37;98807.99;272854;1269;22548;-87
2023/04/29 05:58:03;;;;;;;38.20;24.80;;;;;;;8.07;87.90;98818.05;272209;1275;22324;-87
2023/04/29 06:13:07;;;;;;;32.40;21.50;;;;;;;8.54;88.39;98809.52;272062;1273;25354;-88
2023/04/29 06:27:55;;;;;;;51.90;31.30;;;;;;;8.93;88.86;98801.64;273817;1267;22704;-88
2023/04/29 06:34:50;;;;;;;45.60;29.10;;;;;;;9.18;89.37;98793.23;273418;1273;22269;-88
2023/04/29 06:42:23;;;;;;;31.20;20.30;;;;;;;9.68;89.53;98794.17;273761;1261;22332;-88
2023/04/29 06:57:05;;;;;;;13.80;8.50;;;;;;;10.49;88.61;98790.94;273747;1259;22153;-89
2023/04/29 07:03:28;;;;;;;7.10;5.40;;;;;;;10.79;86.72;98795.46;273634;1270;22247;-88
2023/04/29 07:41:09;;;;;;;6.70;4.50;;;;;;;11.95;82.25;98789.45;271748;1272;22219;-88
2023/04/29 07:47:14;;;;;;;10.80;6.60;;;;;;;12.13;81.52;98791.38;271923;1269;22442;-88
2023/04/29 08:01:14;;;;;;;8.00;4.80;;;;;;;12.51;80.71;98784.89;271487;1269;22570;-87
2023/04/29 08:08:06;;;;;;;9.80;4.70;;;;;;;13.01;80.43;98789.41;271460;1269;25434;-88
2023/04/29 08:15:11;;;;;;;8.90;4.50;;;;;;;13.37;78.83;98792.32;270923;1269;22568;-89
2023/04/29 08:28:53;;;;;;;10.10;5.00;;;;;;;13.82;77.30;98795.75;270430;1273;23480;-88
2023/04/29 08:51:33;;;;;;;8.80;4.10;;;;;;;14.37;73.84;98793.54;270575;1274;22619;-88
2023/04/29 08:58:25;;;;;;;5.20;3.80;;;;;;;14.61;72.73;98788.41;271493;1270;22623;-88
2023/04/29 09:05:05;;;;;;;7.30;4.20;;;;;;;14.83;72.33;98789.23;273096;1274;22592;-87
2023/04/29 09:19:10;;;;;;;8.90;4.00;;;;;;;15.14;70.98;98785.31;272010;1273;23890;-87
2023/04/29 09:25:12;;;;;;;8.90;4.20;;;;;;;15.27;69.99;98785.71;272071;1279;22227;-87
2023/04/29 09:47:16;;;;;;;6.80;4.70;;;;;;;16.45;68.37;98775.65;273301;1273;22201;-88
2023/04/29 09:53:47;;;;;;;5.10;4.00;;;;;;;17.13;67.63;98771.71;272063;1275;22299;-88
2023/04/29 10:00:30;;;;;;;10.10;4.40;;;;;;;17.37;66.85;98767.94;271401;1273;22420;-88
2023/04/29 10:06:32;;;;;;;9.30;4.60;;;;;;;17.41;66.12;98762.41;272033;1270;22346;-88
2023/04/29 10:12:36;;;;;;;9.00;4.50;;;;;;;17.24;65.58;98757.67;271602;1270;22133;-89
2023/04/29 10:34:06;;;;;;;7.20;3.60;;;;;;;17.27;64.78;98747.02;273624;1270;22241;-88
2023/04/29 10:47:23;;;;;;;4.90;3.40;;;;;;;17.37;62.71;98735.86;271798;1263;23586;-88
2023/04/29 10:53:27;;;;;;;7.70;4.30;;;;;;;17.06;62.18;98731.46;272662;1269;22403;-88
2023/04/29 10:59:37;;;;;;;5.80;4.00;;;;;;;16.85;62.43;98730.45;271082;1273;22425;-88
2023/04/29 11:06:00;;;;;;;7.90;4.70;;;;;;;16.71;62.51;98724.78;272562;1261;22724;-87
2023/04/29 11:12:30;;;;;;;6.10;4.00;;;;;;;16.44;61.87;98722.38;273228;1269;23374;-88
2023/04/29 11:19:06;;;;;;;6.30;4.60;;;;;;;16.58;62.46;98718.68;272422;1270;23394;-86
2023/04/29 11:25:34;;;;;;;8.00;4.30;;;;;;;16.78;60.89;98717.73;273140;1270;22380;-85
2023/04/29 11:32:04;;;;;;;9.30;4.30;;;;;;;16.76;61.00;98720.26;272548;1269;22220;-86
2023/04/29 11:38:07;;;;;;;6.50;4.60;;;;;;;16.96;60.80;98721.71;272237;1269;22416;-86
2023/04/29 11:44:45;;;;;;;8.20;3.90;;;;;;;16.92;60.62;98720.36;273057;1269;22157;-85
2023/04/29 11:51:21;;;;;;;6.40;3.80;;;;;;;16.93;60.66;98714.34;272783;1269;23705;-86
2023/04/29 11:58:22;;;;;;;7.00;3.90;;;;;;;16.82;60.30;98715.02;272204;1275;23061;-87
2023/04/29 12:04:35;;;;;;;4.70;3.50;;;;;;;16.83;60.57;98708.60;271692;1275;22676;-86
2023/04/29 12:11:03;;;;;;;;;;;;;;;;;;;;;
2023/04/29 12:26:19;;;;;;;8.20;4.50;;;;;;;17.07;60.10;98706.65;272007;1275;23461;-87
2023/04/29 12:33:13;;;;;;;7.90;4.30;;;;;;;17.01;59.97;98704.33;272573;1269;23632;-88
2023/04/29 12:40:07;;;;;;;6.80;4.50;;;;;;;16.89;59.98;98698.55;272809;1269;22548;-87
2023/04/29 12:47:22;;;;;;;6.40;4.40;;;;;;;16.75;59.78;98697.29;272237;1272;22221;-88
2023/04/29 12:54:02;;;;;;;4.60;3.90;;;;;;;16.67;59.84;98692.70;264040;1272;10001995;-88
2023/04/29 13:01:07;;;;;;;6.00;4.50;;;;;;;16.79;60.42;98687.75;272813;1272;23269;-87
2023/04/29 13:07:55;;;;;;;6.60;4.10;;;;;;;16.73;59.88;98687.55;272539;1272;22228;-88
2023/04/29 13:22:36;;;;;;;6.10;4.20;;;;;;;16.43;60.52;98694.46;273060;1269;23086;-87
2023/04/29 13:28:45;;;;;;;7.10;4.80;;;;;;;16.11;60.89;98696.09;273081;1270;22229;-87
2023/04/29 13:42:35;;;;;;;8.60;5.90;;;;;;;15.72;61.25;98689.58;271865;1269;22978;-88
2023/04/29 14:04:26;;;;;;;19.90;9.20;;;;;;;15.16;65.00;98703.21;271993;1267;23473;-86
2023/04/29 14:10:53;;;;;;;18.40;8.10;;;;;;;15.03;65.75;98707.06;271073;1270;22587;-87
2023/04/29 14:17:20;;;;;;;;;;;;;;;15.15;66.88;98705.04;271923;1263;22487;-87
2023/04/29 14:23:26;;;;;;;16.70;8.20;;;;;;;15.44;67.44;98700.68;272145;1269;22319;-87
2023/04/29 14:29:28;;;;;;;12.10;8.20;;;;;;;15.75;67.53;98702.00;271502;1270;22146;-87
2023/04/29 14:36:08;;;;;;;;;;;;;;;;;;;;;
2023/04/29 14:42:54;;;;;;;14.80;9.10;;;;;;;16.18;67.66;98692.50;272831;1269;23616;-87
2023/04/29 14:49:21;;;;;;;14.90;8.60;;;;;;;16.38;67.67;98693.44;273350;1269;23038;-88
2023/04/29 14:55:22;;;;;;;12.80;8.50;;;;;;;16.57;67.39;98695.50;273263;1269;23615;-87
2023/04/29 15:01:49;;;;;;;13.00;7.80;;;;;;;16.70;66.61;98697.41;272863;1268;23118;-87
2023/04/29 15:16:24;;;;;;;9.80;6.30;;;;;;;17.34;65.96;98699.17;273358;1269;23154;-87
2023/04/29 15:22:26;;;;;;;11.30;7.00;;;;;;;17.51;64.86;98696.92;273112;1269;22208;-87
2023/04/29 15:29:12;;;;;;;12.60;6.90;;;;;;;17.56;65.61;98695.56;273679;1269;22264;-87
2023/04/29 15:43:40;;;;;;;7.40;5.30;;;;;;;17.49;63.66;98684.31;272536;1269;22348;-87
2023/04/29 15:49:57;;;;;;;7.60;4.10;;;;;;;16.99;63.05;98673.70;273100;1269;22273;-87
2023/04/29 16:04:22;;;;;;;5.20;3.00;;;;;;;16.62;62.35;98673.31;273106;1259;22390;-87
2023/04/29 16:18:09;;;;;;;7.70;3.60;;;;;;;16.45;62.00;98679.27;273296;1254;22248;-87
2023/04/29 16:32:03;;;;;;;5.30;3.20;;;;;;;16.08;62.86;98685.17;272434;1269;22230;-86
2023/04/29 16:38:05;;;;;;;6.10;3.80;;;;;;;15.89;62.74;98687.52;271433;1269;22460;-86
2023/04/29 16:44:18;;;;;;;6.90;3.30;;;;;;;15.83;62.59;98690.91;271488;1262;24236;-87
2023/04/29 16:58:46;;;;;;;5.70;3.80;;;;;;;15.63;63.19;98696.08;272567;1269;23466;-87
2023/04/29 17:05:00;;;;;;;8.00;4.70;;;;;;;15.51;63.59;98703.18;273544;1269;22291;-87
2023/04/29 17:11:03;;;;;;;8.40;4.50;;;;;;;15.40;63.90;98707.50;272754;1269;22315;-87
2023/04/29 17:17:28;;;;;;;7.40;4.10;;;;;;;15.24;64.53;98710.44;272701;1269;23038;-87
2023/04/29 17:24:00;;;;;;;6.40;4.40;;;;;;;15.05;64.92;98718.54;273501;1269;22294;-87
2023/04/29 17:52:10;;;;;;;14.40;9.50;;;;;;;14.41;67.48;98743.88;273176;1269;23159;-87
2023/04/29 17:58:15;;;;;;;15.30;10.80;;;;;;;13.99;68.38;98749.81;273405;1275;22400;-88
2023/04/29 18:04:41;;;;;;;18.80;13.90;;;;;;;13.56;70.71;98749.90;272707;1269;22302;-88
2023/04/29 18:10:43;;;;;;;16.80;12.30;;;;;;;13.23;72.53;98745.65;273145;1269;22255;-88
2023/04/29 18:16:45;;;;;;;23.30;16.40;;;;;;;12.96;74.21;98756.21;271922;1269;25460;-90
2023/04/29 18:23:21;;;;;;;22.20;16.00;;;;;;;12.75;75.35;98756.48;272540;1269;22351;-89
2023/04/29 18:30:18;;;;;;;22.80;13.50;;;;;;;12.58;76.54;98766.15;272907;1269;22227;-87
2023/04/29 18:37:39;;;;;;;27.00;15.90;;;;;;;12.42;80.21;98812.04;273084;1269;22239;-89
2023/04/29 18:43:42;;;;;;;23.50;14.50;;;;;;;12.32;81.16;98833.13;273350;1269;22487;-91
2023/04/29 18:50:52;;;;;;;22.90;13.50;;;;;;;12.19;81.48;98835.13;272789;1269;22162;-90
2023/04/29 19:12:19;;;;;;;28.60;15.80;;;;;;;11.86;85.11;98835.45;271512;1269;23912;-88
2023/04/29 19:18:21;;;;;;;26.40;16.50;;;;;;;11.78;85.75;98837.98;273468;1269;23005;-89
2023/04/29 19:31:42;;;;;;;19.30;13.10;;;;;;;11.63;87.15;98848.89;272285;1268;22421;-87
2023/04/29 19:37:44;;;;;;;17.90;12.30;;;;;;;11.58;87.80;98849.33;271124;1269;22327;-88
2023/04/29 19:44:35;;;;;;;19.50;13.20;;;;;;;11.55;88.15;98843.91;272199;1270;22311;-88
2023/04/29 19:58:32;;;;;;;43.20;24.20;;;;;;;11.44;88.88;98844.79;271997;1269;22411;-88
2023/04/29 20:05:04;;;;;;;39.00;24.00;;;;;;;11.40;90.13;98840.45;273316;1274;22220;-88
2023/04/29 20:12:02;;;;;;;32.10;20.00;;;;;;;11.36;90.96;98841.38;272952;1269;22328;-88
2023/04/29 20:26:27;;;;;;;25.30;16.80;;;;;;;11.34;92.00;98843.17;273116;1270;22417;-87
2023/04/29 20:32:37;;;;;;;33.90;19.10;;;;;;;11.38;92.91;98841.61;273025;1269;22253;-88
2023/04/29 20:46:35;;;;;;;37.70;24.60;;;;;;;11.34;93.62;98831.42;271460;1269;22355;-88
2023/04/29 20:52:51;;;;;;;42.20;25.60;;;;;;;11.32;94.14;98821.70;270687;1269;22321;-88
2023/04/29 21:07:07;;;;;;;51.40;25.80;;;;;;;11.29;94.71;98823.25;272042;1270;22645;-87
2023/04/29 21:14:05;;;;;;;34.30;21.10;;;;;;;11.27;95.40;98827.55;272912;1269;22558;-87
2023/04/29 21:21:15;;;;;;;31.60;21.20;;;;;;;11.24;96.36;98838.95;271832;1269;22570;-87
2023/04/29 21:27:38;;;;;;;37.00;22.30;;;;;;;11.26;95.70;98840.69;270719;1270;22546;-87
2023/04/29 21:33:40;;;;;;;36.60;21.90;;;;;;;11.18;95.52;98836.49;272232;1269;23977;-87
2023/04/29 21:39:43;;;;;;;41.50;24.30;;;;;;;11.17;97.28;98837.19;271592;1269;22354;-88
2023/04/29 21:45:53;;;;;;;31.20;22.30;;;;;;;11.22;97.76;98841.68;273412;1269;22516;-87
2023/04/29 21:51:55;;;;;;;35.00;23.80;;;;;;;11.22;97.74;98848.11;272760;1269;22276;-88
2023/04/29 21:57:56;;;;;;;37.40;25.80;;;;;;;11.24;98.42;98855.00;272418;1269;22923;-88
2023/04/29 22:04:10;;;;;;;36.00;23.60;;;;;;;11.28;98.75;98855.42;273210;1270;22209;-87
2023/04/29 22:11:02;;;;;;;31.30;21.80;;;;;;;11.28;98.66;98853.06;273576;1269;22411;-87
2023/04/29 22:32:51;;;;;;;32.10;20.60;;;;;;;11.15;99.57;98859.64;272699;1269;23243;-88
2023/04/29 22:39:00;;;;;;;30.30;22.10;;;;;;;11.09;99.70;98864.22;273039;1269;23985;-88
2023/04/29 22:45:34;;;;;;;45.00;26.60;;;;;;;11.08;99.79;98872.05;272570;1269;22213;-88
2023/04/29 22:51:55;;;;;;;40.60;27.50;;;;;;;11.08;99.95;98877.37;273095;1269;22416;-85
2023/04/29 22:58:46;;;;;;;44.70;28.30;;;;;;;11.11;100.00;98879.27;272803;1269;22223;-85
2023/04/29 23:04:55;;;;;;;39.10;25.60;;;;;;;11.10;100.00;98879.35;273484;1272;22330;-85
2023/04/29 23:11:12;;;;;;;42.90;27.00;;;;;;;11.08;100.00;98884.95;272939;1269;22297;-86
2023/04/29 23:17:38;;;;;;;39.60;25.00;;;;;;;11.07;100.00;98879.16;273320;1269;22260;-85
2023/04/29 23:23:55;;;;;;;35.30;24.10;;;;;;;11.08;100.00;98882.69;272156;1271;22538;-85
2023/04/29 23:29:57;;;;;;;31.30;21.10;;;;;;;11.10;100.00;98888.02;272043;1262;27800;-84
2023/04/29 23:35:59;;;;;;;31.10;19.00;;;;;;;11.10;100.00;98884.59;272163;1269;22325;-87
2023/04/29 23:42:26;;;;;;;27.00;17.70;;;;;;;11.07;100.00;98882.92;272994;1269;23132;-86
2023/04/29 23:48:29;;;;;;;22.80;17.70;;;;;;;11.06;100.00;98886.90;273057;1269;23124;-86
2023/04/29 23:54:30;;;;;;;21.40;16.10;;;;;;;11.05;100.00;98887.99;273282;1269;22317;-86
